sensor_id;sensor_type;location;lat;lon;timestamp;pressure;altitude;pressure_sealevel;temperature;humidity
19761;BME280;10039;42.632;23.408;2023-06-22T00:02:02;95409.03;;;21.66;68.11
19761;BME280;10039;42.632;23.408;2023-06-22T00:04:27;95400.31;;;21.62;67.83
19761;BME280;10039;42.632;23.408;2023-06-22T00:06:53;95402.09;;;21.36;68.17
19761;BME280;10039;42.632;23.408;2023-06-22T00:09:18;95405.19;;;21.00;68.21
19761;BME280;10039;42.632;23.408;2023-06-22T00:11:44;95380.41;;;20.69;68.65
19761;BME280;10039;42.632;23.408;2023-06-22T00:14:10;95408.47;;;20.66;69.16
19761;BME280;10039;42.632;23.408;2023-06-22T00:16:35;95396.75;;;20.60;69.06
19761;BME280;10039;42.632;23.408;2023-06-22T00:19:01;95394.59;;;20.27;70.27
19761;BME280;10039;42.632;23.408;2023-06-22T00:21:28;95394.09;;;20.37;70.17
19761;BME280;10039;42.632;23.408;2023-06-22T00:23:53;95385.25;;;20.28;69.97
19761;BME280;10039;42.632;23.408;2023-06-22T00:26:19;95383.34;;;20.42;69.85
19761;BME280;10039;42.632;23.408;2023-06-22T00:28:46;95383.03;;;20.26;70.33
19761;BME280;10039;42.632;23.408;2023-06-22T00:31:12;95377.16;;;20.42;69.73
19761;BME280;10039;42.632;23.408;2023-06-22T00:33:37;95370.53;;;20.43;68.87
19761;BME280;10039;42.632;23.408;2023-06-22T00:36:03;95343.38;;;20.29;68.81
19761;BME280;10039;42.632;23.408;2023-06-22T00:38:29;95372.19;;;20.26;69.33
19761;BME280;10039;42.632;23.408;2023-06-22T00:40:54;95379.84;;;20.28;69.49
19761;BME280;10039;42.632;23.408;2023-06-22T00:43:20;95386.75;;;20.29;69.46
19761;BME280;10039;42.632;23.408;2023-06-22T00:45:45;95378.75;;;20.11;69.34
19761;BME280;10039;42.632;23.408;2023-06-22T00:48:11;95367.56;;;19.94;70.26
19761;BME280;10039;42.632;23.408;2023-06-22T00:50:37;95366.31;;;20.04;69.94
19761;BME280;10039;42.632;23.408;2023-06-22T00:53:07;95375.72;;;20.18;70.36
19761;BME280;10039;42.632;23.408;2023-06-22T00:55:43;95380.41;;;20.32;69.81
19761;BME280;10039;42.632;23.408;2023-06-22T00:58:11;95381.97;;;20.47;69.56
19761;BME280;10039;42.632;23.408;2023-06-22T01:00:37;95380.19;;;20.58;69.51
19761;BME280;10039;42.632;23.408;2023-06-22T01:03:03;95358.63;;;20.64;69.08
19761;BME280;10039;42.632;23.408;2023-06-22T01:05:29;95366.31;;;20.80;68.57
19761;BME280;10039;42.632;23.408;2023-06-22T01:08:00;95380.56;;;20.89;68.54
19761;BME280;10039;42.632;23.408;2023-06-22T01:10:52;95376.81;;;20.87;68.18
19761;BME280;10039;42.632;23.408;2023-06-22T01:16:29;95377.38;;;20.91;67.98
19761;BME280;10039;42.632;23.408;2023-06-22T01:18:57;95381.91;;;20.70;68.71
19761;BME280;10039;42.632;23.408;2023-06-22T01:21:28;95374.53;;;20.71;68.83
19761;BME280;10039;42.632;23.408;2023-06-22T01:26:37;95382.44;;;20.83;68.55
19761;BME280;10039;42.632;23.408;2023-06-22T01:29:04;95386.69;;;20.75;68.56
19761;BME280;10039;42.632;23.408;2023-06-22T01:31:33;95386.41;;;20.73;68.92
19761;BME280;10039;42.632;23.408;2023-06-22T01:34:03;95382.94;;;20.73;68.65
19761;BME280;10039;42.632;23.408;2023-06-22T01:36:31;95390.69;;;20.65;68.94
19761;BME280;10039;42.632;23.408;2023-06-22T01:38:58;95396.75;;;20.60;69.19
19761;BME280;10039;42.632;23.408;2023-06-22T01:41:28;95398.06;;;20.50;69.39
19761;BME280;10039;42.632;23.408;2023-06-22T01:43:56;95379.06;;;20.36;69.96
19761;BME280;10039;42.632;23.408;2023-06-22T01:46:22;95383.75;;;20.27;70.21
19761;BME280;10039;42.632;23.408;2023-06-22T01:48:48;95398.72;;;20.22;70.43
19761;BME280;10039;42.632;23.408;2023-06-22T01:51:14;95395.91;;;20.17;70.75
19761;BME280;10039;42.632;23.408;2023-06-22T01:53:40;95384.81;;;20.29;70.33
19761;BME280;10039;42.632;23.408;2023-06-22T01:56:06;95398.72;;;20.45;70.02
19761;BME280;10039;42.632;23.408;2023-06-22T01:58:32;95402.00;;;20.49;69.53
19761;BME280;10039;42.632;23.408;2023-06-22T02:01:12;95396.56;;;20.49;70.01
19761;BME280;10039;42.632;23.408;2023-06-22T02:03:50;95400.56;;;20.39;69.96
19761;BME280;10039;42.632;23.408;2023-06-22T02:06:23;95399.88;;;20.30;70.20
19761;BME280;10039;42.632;23.408;2023-06-22T02:08:54;95389.91;;;20.13;71.61
19761;BME280;10039;42.632;23.408;2023-06-22T02:11:21;95402.00;;;20.03;72.09
19761;BME280;10039;42.632;23.408;2023-06-22T02:13:48;95408.09;;;19.89;73.43
19761;BME280;10039;42.632;23.408;2023-06-22T02:16:15;95408.91;;;19.71;73.80
19761;BME280;10039;42.632;23.408;2023-06-22T02:18:49;95416.91;;;19.66;74.19
19761;BME280;10039;42.632;23.408;2023-06-22T02:21:21;95375.09;;;19.25;75.13
19761;BME280;10039;42.632;23.408;2023-06-22T02:23:46;95383.81;;;19.20;75.41
19761;BME280;10039;42.632;23.408;2023-06-22T02:26:12;95407.38;;;19.38;75.94
19761;BME280;10039;42.632;23.408;2023-06-22T02:28:38;95401.66;;;19.36;75.15
19761;BME280;10039;42.632;23.408;2023-06-22T02:31:04;95408.28;;;19.35;75.17
19761;BME280;10039;42.632;23.408;2023-06-22T02:33:29;95415.22;;;19.36;74.64
19761;BME280;10039;42.632;23.408;2023-06-22T02:35:55;95410.25;;;19.43;74.57
19761;BME280;10039;42.632;23.408;2023-06-22T02:38:20;95401.56;;;19.63;74.13
19761;BME280;10039;42.632;23.408;2023-06-22T02:40:48;95401.09;;;19.73;73.47
19761;BME280;10039;42.632;23.408;2023-06-22T02:43:14;95400.03;;;19.71;74.03
19761;BME280;10039;42.632;23.408;2023-06-22T02:45:39;95403.00;;;19.82;73.45
19761;BME280;10039;42.632;23.408;2023-06-22T02:48:05;95399.06;;;19.83;73.38
19761;BME280;10039;42.632;23.408;2023-06-22T02:50:30;95389.75;;;19.84;73.32
19761;BME280;10039;42.632;23.408;2023-06-22T02:52:56;95413.59;;;20.03;72.90
19761;BME280;10039;42.632;23.408;2023-06-22T02:55:21;95419.19;;;20.00;73.21
19761;BME280;10039;42.632;23.408;2023-06-22T02:57:46;95408.19;;;19.94;72.72
19761;BME280;10039;42.632;23.408;2023-06-22T03:00:13;95410.00;;;19.97;73.12
19761;BME280;10039;42.632;23.408;2023-06-22T03:02:52;95419.59;;;20.07;72.92
19761;BME280;10039;42.632;23.408;2023-06-22T03:05:17;95418.66;;;20.10;72.60
19761;BME280;10039;42.632;23.408;2023-06-22T03:07:46;95426.78;;;20.10;72.38
19761;BME280;10039;42.632;23.408;2023-06-22T03:10:13;95424.56;;;20.09;72.51
19761;BME280;10039;42.632;23.408;2023-06-22T03:12:40;95423.69;;;20.03;72.64
19761;BME280;10039;42.632;23.408;2023-06-22T03:15:06;95417.06;;;20.04;72.59
19761;BME280;10039;42.632;23.408;2023-06-22T03:17:36;95426.09;;;19.92;73.06
19761;BME280;10039;42.632;23.408;2023-06-22T03:20:02;95439.94;;;19.94;72.93
19761;BME280;10039;42.632;23.408;2023-06-22T03:22:36;95433.59;;;20.06;72.87
19761;BME280;10039;42.632;23.408;2023-06-22T03:25:02;95439.44;;;20.13;72.62
19761;BME280;10039;42.632;23.408;2023-06-22T03:27:27;95442.00;;;20.17;72.44
19761;BME280;10039;42.632;23.408;2023-06-22T03:29:53;95447.69;;;20.19;72.29
19761;BME280;10039;42.632;23.408;2023-06-22T03:32:18;95416.47;;;20.00;72.32
19761;BME280;10039;42.632;23.408;2023-06-22T03:34:43;95403.97;;;19.93;72.34
19761;BME280;10039;42.632;23.408;2023-06-22T03:37:13;95437.78;;;20.16;72.66
19761;BME280;10039;42.632;23.408;2023-06-22T03:39:39;95445.56;;;20.23;72.65
19761;BME280;10039;42.632;23.408;2023-06-22T03:42:05;95444.81;;;20.22;72.56
19761;BME280;10039;42.632;23.408;2023-06-22T03:44:30;95453.41;;;20.21;72.29
19761;BME280;10039;42.632;23.408;2023-06-22T03:46:56;95448.53;;;20.25;72.08
19761;BME280;10039;42.632;23.408;2023-06-22T03:49:21;95438.97;;;20.15;72.48
19761;BME280;10039;42.632;23.408;2023-06-22T03:51:47;95446.78;;;20.22;72.28
19761;BME280;10039;42.632;23.408;2023-06-22T03:54:12;95434.63;;;20.08;72.86
19761;BME280;10039;42.632;23.408;2023-06-22T03:56:38;95447.28;;;20.11;73.75
19761;BME280;10039;42.632;23.408;2023-06-22T03:59:04;95450.69;;;20.21;73.31
19761;BME280;10039;42.632;23.408;2023-06-22T04:01:49;95438.09;;;20.09;73.24
19761;BME280;10039;42.632;23.408;2023-06-22T04:04:17;95417.06;;;19.95;73.03
19761;BME280;10039;42.632;23.408;2023-06-22T04:06:43;95456.53;;;20.28;73.20
19761;BME280;10039;42.632;23.408;2023-06-22T04:09:09;95435.69;;;20.11;72.58
19761;BME280;10039;42.632;23.408;2023-06-22T04:11:34;95461.94;;;20.28;72.38
19761;BME280;10039;42.632;23.408;2023-06-22T04:14:00;95476.88;;;20.24;72.53
19761;BME280;10039;42.632;23.408;2023-06-22T04:16:25;95469.31;;;20.28;72.07
19761;BME280;10039;42.632;23.408;2023-06-22T04:18:51;95466.59;;;20.28;71.69
19761;BME280;10039;42.632;23.408;2023-06-22T04:21:16;95455.41;;;20.34;70.62
19761;BME280;10039;42.632;23.408;2023-06-22T04:23:41;95447.91;;;20.30;71.52
19761;BME280;10039;42.632;23.408;2023-06-22T04:26:08;95462.34;;;20.35;71.54
19761;BME280;10039;42.632;23.408;2023-06-22T04:28:33;95453.25;;;20.47;70.76
19761;BME280;10039;42.632;23.408;2023-06-22T04:31:01;95446.81;;;20.59;70.38
19761;BME280;10039;42.632;23.408;2023-06-22T04:33:27;95447.47;;;20.54;71.22
19761;BME280;10039;42.632;23.408;2023-06-22T04:35:55;95428.78;;;20.33;70.82
19761;BME280;10039;42.632;23.408;2023-06-22T04:38:22;95430.81;;;20.61;70.59
19761;BME280;10039;42.632;23.408;2023-06-22T04:40:48;95430.75;;;20.70;69.84
19761;BME280;10039;42.632;23.408;2023-06-22T04:43:14;95430.75;;;20.70;70.10
19761;BME280;10039;42.632;23.408;2023-06-22T04:45:40;95431.97;;;20.69;70.26
19761;BME280;10039;42.632;23.408;2023-06-22T04:48:05;95424.19;;;20.62;70.08
19761;BME280;10039;42.632;23.408;2023-06-22T04:50:34;95419.03;;;20.64;70.41
19761;BME280;10039;42.632;23.408;2023-06-22T04:52:59;95417.44;;;20.81;70.36
19761;BME280;10039;42.632;23.408;2023-06-22T04:55:25;95431.88;;;21.02;69.91
19761;BME280;10039;42.632;23.408;2023-06-22T04:57:51;95416.91;;;21.06;69.54
19761;BME280;10039;42.632;23.408;2023-06-22T05:00:19;95429.34;;;21.27;69.14
19761;BME280;10039;42.632;23.408;2023-06-22T05:02:48;95437.13;;;21.48;68.74
19761;BME280;10039;42.632;23.408;2023-06-22T05:05:14;95442.00;;;21.59;68.01
19761;BME280;10039;42.632;23.408;2023-06-22T05:07:45;95434.06;;;21.70;68.01
19761;BME280;10039;42.632;23.408;2023-06-22T05:10:13;95449.19;;;21.91;67.17
19761;BME280;10039;42.632;23.408;2023-06-22T05:12:40;95446.09;;;21.98;66.96
19761;BME280;10039;42.632;23.408;2023-06-22T05:15:07;95432.78;;;22.00;67.07
19761;BME280;10039;42.632;23.408;2023-06-22T05:17:33;95441.09;;;22.11;66.88
19761;BME280;10039;42.632;23.408;2023-06-22T05:19:58;95451.72;;;22.29;67.25
19761;BME280;10039;42.632;23.408;2023-06-22T05:22:24;95448.16;;;22.23;66.80
19761;BME280;10039;42.632;23.408;2023-06-22T05:24:49;95445.25;;;22.41;66.57
19761;BME280;10039;42.632;23.408;2023-06-22T05:27:15;95449.47;;;22.42;65.70
19761;BME280;10039;42.632;23.408;2023-06-22T05:29:40;95447.75;;;22.44;66.08
19761;BME280;10039;42.632;23.408;2023-06-22T05:32:07;95458.78;;;22.55;65.59
19761;BME280;10039;42.632;23.408;2023-06-22T05:34:36;95459.09;;;22.82;65.69
19761;BME280;10039;42.632;23.408;2023-06-22T05:37:02;95443.47;;;22.77;67.42
19761;BME280;10039;42.632;23.408;2023-06-22T05:39:28;95465.69;;;23.16;66.90
19761;BME280;10039;42.632;23.408;2023-06-22T05:41:53;95473.38;;;23.17;64.02
19761;BME280;10039;42.632;23.408;2023-06-22T05:44:19;95477.81;;;22.95;65.28
19761;BME280;10039;42.632;23.408;2023-06-22T05:46:44;95486.72;;;22.56;67.05
19761;BME280;10039;42.632;23.408;2023-06-22T05:49:12;95489.00;;;22.77;67.17
19761;BME280;10039;42.632;23.408;2023-06-22T05:51:38;95480.13;;;23.02;67.24
19761;BME280;10039;42.632;23.408;2023-06-22T05:54:03;95476.53;;;22.90;66.76
19761;BME280;10039;42.632;23.408;2023-06-22T05:56:29;95474.47;;;23.05;66.37
19761;BME280;10039;42.632;23.408;2023-06-22T05:58:54;95485.75;;;23.38;66.15
19761;BME280;10039;42.632;23.408;2023-06-22T06:01:20;95488.38;;;23.53;64.05
19761;BME280;10039;42.632;23.408;2023-06-22T06:03:45;95489.75;;;23.68;63.88
19761;BME280;10039;42.632;23.408;2023-06-22T06:06:11;95484.31;;;23.99;64.10
19761;BME280;10039;42.632;23.408;2023-06-22T06:08:38;95476.06;;;24.24;62.29
19761;BME280;10039;42.632;23.408;2023-06-22T06:11:03;95475.69;;;24.42;61.62
19761;BME280;10039;42.632;23.408;2023-06-22T06:13:29;95467.31;;;24.15;62.09
19761;BME280;10039;42.632;23.408;2023-06-22T06:15:54;95479.91;;;24.07;63.55
19761;BME280;10039;42.632;23.408;2023-06-22T06:18:21;95479.41;;;24.45;63.06
19761;BME280;10039;42.632;23.408;2023-06-22T06:20:46;95466.66;;;24.67;62.82
19761;BME280;10039;42.632;23.408;2023-06-22T06:23:12;95472.19;;;24.84;61.13
19761;BME280;10039;42.632;23.408;2023-06-22T06:25:37;95450.38;;;25.05;60.95
19761;BME280;10039;42.632;23.408;2023-06-22T06:28:03;95464.75;;;24.90;60.96
19761;BME280;10039;42.632;23.408;2023-06-22T06:30:28;95441.16;;;24.87;61.68
19761;BME280;10039;42.632;23.408;2023-06-22T06:32:54;95459.44;;;25.33;59.87
19761;BME280;10039;42.632;23.408;2023-06-22T06:35:20;95459.47;;;25.55;60.12
19761;BME280;10039;42.632;23.408;2023-06-22T06:37:48;95460.25;;;25.78;59.09
19761;BME280;10039;42.632;23.408;2023-06-22T06:40:15;95461.97;;;25.70;58.48
19761;BME280;10039;42.632;23.408;2023-06-22T06:42:42;95439.59;;;25.49;58.63
19761;BME280;10039;42.632;23.408;2023-06-22T06:45:19;95465.75;;;25.94;57.90
19761;BME280;10039;42.632;23.408;2023-06-22T06:47:45;95439.09;;;26.00;58.47
19761;BME280;10039;42.632;23.408;2023-06-22T06:50:12;95447.03;;;26.20;57.80
19761;BME280;10039;42.632;23.408;2023-06-22T06:52:38;95440.50;;;26.61;57.85
19761;BME280;10039;42.632;23.408;2023-06-22T06:55:04;95437.41;;;26.87;56.38
19761;BME280;10039;42.632;23.408;2023-06-22T06:57:32;95448.31;;;26.98;55.16
19761;BME280;10039;42.632;23.408;2023-06-22T06:59:59;95440.47;;;26.67;54.51
19761;BME280;10039;42.632;23.408;2023-06-22T07:02:26;95436.16;;;26.88;54.63
19761;BME280;10039;42.632;23.408;2023-06-22T07:04:53;95421.81;;;27.17;55.33
19761;BME280;10039;42.632;23.408;2023-06-22T07:07:20;95430.28;;;27.59;55.02
19761;BME280;10039;42.632;23.408;2023-06-22T07:09:46;95419.47;;;27.72;54.11
19761;BME280;10039;42.632;23.408;2023-06-22T07:12:12;95424.72;;;27.99;53.51
19761;BME280;10039;42.632;23.408;2023-06-22T07:14:37;95439.47;;;28.26;52.29
19761;BME280;10039;42.632;23.408;2023-06-22T07:17:03;95442.63;;;28.35;51.58
19761;BME280;10039;42.632;23.408;2023-06-22T07:19:29;95407.38;;;28.39;51.05
19761;BME280;10039;42.632;23.408;2023-06-22T07:21:54;95429.88;;;28.80;51.51
19761;BME280;10039;42.632;23.408;2023-06-22T07:24:22;95437.97;;;28.96;50.54
19761;BME280;10039;42.632;23.408;2023-06-22T07:26:48;95433.28;;;29.10;49.29
19761;BME280;10039;42.632;23.408;2023-06-22T07:29:16;95428.59;;;29.42;49.64
19761;BME280;10039;42.632;23.408;2023-06-22T07:31:42;95427.91;;;29.17;49.26
19761;BME280;10039;42.632;23.408;2023-06-22T07:34:07;95415.19;;;29.51;49.91
19761;BME280;10039;42.632;23.408;2023-06-22T07:36:33;95426.25;;;29.64;48.62
19761;BME280;10039;42.632;23.408;2023-06-22T07:39:01;95408.09;;;29.43;48.74
19761;BME280;10039;42.632;23.408;2023-06-22T07:41:27;95431.63;;;29.57;49.38
19761;BME280;10039;42.632;23.408;2023-06-22T07:43:53;95431.47;;;29.80;49.22
19761;BME280;10039;42.632;23.408;2023-06-22T07:46:18;95435.78;;;29.94;49.10
19761;BME280;10039;42.632;23.408;2023-06-22T07:48:44;95431.50;;;30.12;47.80
19761;BME280;10039;42.632;23.408;2023-06-22T07:51:09;95420.78;;;29.46;46.83
19761;BME280;10039;42.632;23.408;2023-06-22T07:53:40;95433.03;;;29.63;47.40
19761;BME280;10039;42.632;23.408;2023-06-22T07:56:05;95418.41;;;29.68;47.04
19761;BME280;10039;42.632;23.408;2023-06-22T07:58:32;95426.75;;;29.81;45.94
19761;BME280;10039;42.632;23.408;2023-06-22T08:00:58;95419.88;;;29.87;46.17
19761;BME280;10039;42.632;23.408;2023-06-22T08:03:23;95424.53;;;29.92;45.20
19761;BME280;10039;42.632;23.408;2023-06-22T08:05:49;95427.72;;;29.96;45.37
19761;BME280;10039;42.632;23.408;2023-06-22T08:08:15;95418.72;;;30.40;45.16
19761;BME280;10039;42.632;23.408;2023-06-22T08:10:41;95395.41;;;30.41;44.48
19761;BME280;10039;42.632;23.408;2023-06-22T08:13:07;95417.22;;;30.91;45.07
19761;BME280;10039;42.632;23.408;2023-06-22T08:15:33;95402.56;;;31.09;43.69
19761;BME280;10039;42.632;23.408;2023-06-22T08:17:59;95413.91;;;31.05;43.78
19761;BME280;10039;42.632;23.408;2023-06-22T08:20:26;95401.81;;;31.21;45.36
19761;BME280;10039;42.632;23.408;2023-06-22T08:22:53;95407.75;;;31.46;43.86
19761;BME280;10039;42.632;23.408;2023-06-22T08:25:19;95402.44;;;31.81;44.31
19761;BME280;10039;42.632;23.408;2023-06-22T08:27:46;95396.91;;;31.61;43.22
19761;BME280;10039;42.632;23.408;2023-06-22T08:30:12;95394.88;;;31.61;43.62
19761;BME280;10039;42.632;23.408;2023-06-22T08:32:38;95363.00;;;31.06;44.59
19761;BME280;10039;42.632;23.408;2023-06-22T08:35:04;95377.88;;;31.37;45.63
19761;BME280;10039;42.632;23.408;2023-06-22T08:37:31;95380.88;;;31.80;44.60
19761;BME280;10039;42.632;23.408;2023-06-22T08:40:02;95382.94;;;32.07;45.07
19761;BME280;10039;42.632;23.408;2023-06-22T08:42:30;95399.13;;;32.51;43.26
19761;BME280;10039;42.632;23.408;2023-06-22T08:44:56;95401.09;;;32.71;43.17
19761;BME280;10039;42.632;23.408;2023-06-22T08:47:22;95396.28;;;32.64;42.49
19761;BME280;10039;42.632;23.408;2023-06-22T08:49:48;95398.00;;;32.82;42.68
19761;BME280;10039;42.632;23.408;2023-06-22T08:52:14;95402.09;;;31.85;41.76
19761;BME280;10039;42.632;23.408;2023-06-22T08:54:39;95385.41;;;31.57;43.76
19761;BME280;10039;42.632;23.408;2023-06-22T08:57:05;95393.84;;;31.92;42.50
19761;BME280;10039;42.632;23.408;2023-06-22T08:59:30;95390.41;;;32.19;41.98
19761;BME280;10039;42.632;23.408;2023-06-22T09:01:56;95382.72;;;32.25;41.11
19761;BME280;10039;42.632;23.408;2023-06-22T09:04:21;95380.84;;;32.20;41.47
19761;BME280;10039;42.632;23.408;2023-06-22T09:06:47;95356.16;;;32.22;41.54
19761;BME280;10039;42.632;23.408;2023-06-22T09:09:13;95373.63;;;32.73;42.52
19761;BME280;10039;42.632;23.408;2023-06-22T09:11:39;95379.47;;;33.05;41.50
19761;BME280;10039;42.632;23.408;2023-06-22T09:14:05;95381.03;;;33.14;40.21
19761;BME280;10039;42.632;23.408;2023-06-22T09:16:31;95375.88;;;33.25;40.02
19761;BME280;10039;42.632;23.408;2023-06-22T09:18:56;95378.03;;;32.41;40.11
19761;BME280;10039;42.632;23.408;2023-06-22T09:21:22;95383.72;;;32.63;41.80
19761;BME280;10039;42.632;23.408;2023-06-22T09:23:48;95372.81;;;33.01;42.00
19761;BME280;10039;42.632;23.408;2023-06-22T09:26:17;95380.19;;;32.98;39.59
19761;BME280;10039;42.632;23.408;2023-06-22T09:28:42;95377.03;;;33.44;40.33
19761;BME280;10039;42.632;23.408;2023-06-22T09:31:08;95370.81;;;33.74;39.35
19761;BME280;10039;42.632;23.408;2023-06-22T09:33:33;95370.03;;;33.51;39.33
19761;BME280;10039;42.632;23.408;2023-06-22T09:35:58;95365.09;;;33.72;38.62
19761;BME280;10039;42.632;23.408;2023-06-22T09:38:24;95374.88;;;33.80;38.83
19761;BME280;10039;42.632;23.408;2023-06-22T09:40:49;95390.06;;;33.87;38.16
19761;BME280;10039;42.632;23.408;2023-06-22T09:43:15;95382.09;;;34.06;38.78
19761;BME280;10039;42.632;23.408;2023-06-22T09:45:40;95374.34;;;34.27;37.43
19761;BME280;10039;42.632;23.408;2023-06-22T09:48:05;95380.22;;;34.46;36.01
19761;BME280;10039;42.632;23.408;2023-06-22T09:50:31;95368.56;;;34.55;36.46
19761;BME280;10039;42.632;23.408;2023-06-22T09:52:56;95379.94;;;34.96;37.61
19761;BME280;10039;42.632;23.408;2023-06-22T09:55:22;95358.78;;;35.15;35.84
19761;BME280;10039;42.632;23.408;2023-06-22T09:57:47;95355.59;;;34.64;37.13
19761;BME280;10039;42.632;23.408;2023-06-22T10:00:14;95369.84;;;34.68;36.57
19761;BME280;10039;42.632;23.408;2023-06-22T10:02:44;95355.16;;;34.83;37.50
19761;BME280;10039;42.632;23.408;2023-06-22T10:05:10;95337.53;;;34.95;38.33
19761;BME280;10039;42.632;23.408;2023-06-22T10:07:36;95340.88;;;35.33;36.55
19761;BME280;10039;42.632;23.408;2023-06-22T10:10:06;95331.94;;;35.42;34.72
19761;BME280;10039;42.632;23.408;2023-06-22T10:12:32;95317.28;;;35.17;34.88
19761;BME280;10039;42.632;23.408;2023-06-22T10:14:58;95345.25;;;35.44;35.25
19761;BME280;10039;42.632;23.408;2023-06-22T10:17:23;95327.94;;;35.60;34.74
19761;BME280;10039;42.632;23.408;2023-06-22T10:19:49;95347.06;;;36.05;34.55
19761;BME280;10039;42.632;23.408;2023-06-22T10:22:14;95335.78;;;36.03;33.37
19761;BME280;10039;42.632;23.408;2023-06-22T10:24:39;95337.25;;;36.04;35.16
19761;BME280;10039;42.632;23.408;2023-06-22T10:27:10;95342.41;;;36.07;34.53
19761;BME280;10039;42.632;23.408;2023-06-22T10:29:36;95330.47;;;35.90;35.75
19761;BME280;10039;42.632;23.408;2023-06-22T10:32:01;95338.19;;;35.99;34.48
19761;BME280;10039;42.632;23.408;2023-06-22T10:34:27;95322.22;;;36.07;33.83
19761;BME280;10039;42.632;23.408;2023-06-22T10:36:52;95332.22;;;36.44;34.11
19761;BME280;10039;42.632;23.408;2023-06-22T10:39:18;95336.84;;;36.66;33.56
19761;BME280;10039;42.632;23.408;2023-06-22T10:41:44;95335.91;;;36.97;33.82
19761;BME280;10039;42.632;23.408;2023-06-22T10:44:09;95312.94;;;36.63;33.52
19761;BME280;10039;42.632;23.408;2023-06-22T10:46:35;95314.28;;;36.88;33.25
19761;BME280;10039;42.632;23.408;2023-06-22T10:49:00;95332.63;;;37.08;34.38
19761;BME280;10039;42.632;23.408;2023-06-22T10:51:26;95301.63;;;36.61;32.04
19761;BME280;10039;42.632;23.408;2023-06-22T10:53:53;95322.22;;;36.92;32.93
19761;BME280;10039;42.632;23.408;2023-06-22T10:56:19;95323.31;;;37.22;32.92
19761;BME280;10039;42.632;23.408;2023-06-22T10:58:45;95312.34;;;37.24;32.18
19761;BME280;10039;42.632;23.408;2023-06-22T11:01:11;95302.97;;;37.29;33.18
19761;BME280;10039;42.632;23.408;2023-06-22T11:03:36;95282.78;;;37.12;33.91
19761;BME280;10039;42.632;23.408;2023-06-22T11:06:02;95283.22;;;37.08;33.06
19761;BME280;10039;42.632;23.408;2023-06-22T11:08:27;95320.94;;;36.59;32.37
19761;BME280;10039;42.632;23.408;2023-06-22T11:10:53;95305.09;;;35.05;33.79
19761;BME280;10039;42.632;23.408;2023-06-22T11:13:18;95316.72;;;35.19;34.23
19761;BME280;10039;42.632;23.408;2023-06-22T11:15:43;95318.22;;;34.65;35.28
19761;BME280;10039;42.632;23.408;2023-06-22T11:18:09;95310.47;;;34.64;35.26
19761;BME280;10039;42.632;23.408;2023-06-22T11:20:35;95313.41;;;35.13;33.82
19761;BME280;10039;42.632;23.408;2023-06-22T11:23:06;95304.06;;;35.57;33.52
19761;BME280;10039;42.632;23.408;2023-06-22T11:25:32;95281.00;;;35.08;33.12
19761;BME280;10039;42.632;23.408;2023-06-22T11:28:02;95302.75;;;35.58;33.53
19761;BME280;10039;42.632;23.408;2023-06-22T11:30:28;95304.06;;;36.06;33.26
19761;BME280;10039;42.632;23.408;2023-06-22T11:32:53;95300.78;;;36.34;32.99
19761;BME280;10039;42.632;23.408;2023-06-22T11:35:19;95296.81;;;36.61;32.34
19761;BME280;10039;42.632;23.408;2023-06-22T11:37:44;95282.88;;;36.27;32.12
19761;BME280;10039;42.632;23.408;2023-06-22T11:40:10;95274.03;;;36.38;32.88
19761;BME280;10039;42.632;23.408;2023-06-22T11:42:36;95285.38;;;36.84;33.08
19761;BME280;10039;42.632;23.408;2023-06-22T11:45:02;95287.88;;;36.63;32.09
19761;BME280;10039;42.632;23.408;2023-06-22T11:47:29;95283.84;;;36.22;32.02
19761;BME280;10039;42.632;23.408;2023-06-22T11:49:54;95278.72;;;36.53;32.90
19761;BME280;10039;42.632;23.408;2023-06-22T11:52:19;95277.19;;;36.01;32.88
19761;BME280;10039;42.632;23.408;2023-06-22T11:54:45;95267.38;;;35.59;33.25
19761;BME280;10039;42.632;23.408;2023-06-22T11:57:11;95260.72;;;34.98;35.58
19761;BME280;10039;42.632;23.408;2023-06-22T11:59:36;95259.22;;;35.61;34.73
19761;BME280;10039;42.632;23.408;2023-06-22T12:02:02;95260.34;;;35.58;33.36
19761;BME280;10039;42.632;23.408;2023-06-22T12:04:27;95254.22;;;35.59;34.18
19761;BME280;10039;42.632;23.408;2023-06-22T12:06:53;95270.03;;;35.49;33.49
19761;BME280;10039;42.632;23.408;2023-06-22T12:09:18;95268.28;;;35.61;33.96
19761;BME280;10039;42.632;23.408;2023-06-22T12:11:44;95270.28;;;35.12;34.75
19761;BME280;10039;42.632;23.408;2023-06-22T12:14:09;95264.75;;;35.36;34.62
19761;BME280;10039;42.632;23.408;2023-06-22T12:16:34;95275.13;;;34.64;35.72
19761;BME280;10039;42.632;23.408;2023-06-22T12:19:00;95284.88;;;34.04;37.97
19761;BME280;10039;42.632;23.408;2023-06-22T12:21:25;95302.72;;;33.06;40.38
19761;BME280;10039;42.632;23.408;2023-06-22T12:23:51;95287.81;;;32.03;42.35
19761;BME280;10039;42.632;23.408;2023-06-22T12:26:16;95305.84;;;31.96;43.78
19761;BME280;10039;42.632;23.408;2023-06-22T12:28:42;95306.03;;;32.18;43.53
19761;BME280;10039;42.632;23.408;2023-06-22T12:31:07;95310.50;;;32.01;45.65
19761;BME280;10039;42.632;23.408;2023-06-22T12:33:33;95303.91;;;31.43;50.98
19761;BME280;10039;42.632;23.408;2023-06-22T12:35:58;95311.34;;;30.94;54.63
19761;BME280;10039;42.632;23.408;2023-06-22T12:38:24;95316.06;;;28.70;54.21
19761;BME280;10039;42.632;23.408;2023-06-22T12:40:51;95327.31;;;27.52;56.36
19761;BME280;10039;42.632;23.408;2023-06-22T12:43:16;95346.53;;;27.82;56.93
19761;BME280;10039;42.632;23.408;2023-06-22T12:45:42;95338.34;;;27.76;57.90
19761;BME280;10039;42.632;23.408;2023-06-22T12:48:07;95338.75;;;28.10;58.49
19761;BME280;10039;42.632;23.408;2023-06-22T12:50:33;95356.44;;;28.38;59.16
19761;BME280;10039;42.632;23.408;2023-06-22T12:52:59;95368.78;;;28.50;59.89